Time;durP1;ratioP1;P1;durP2;ratioP2;P2;SDS_P1;SDS_P2;PMS_P1;PMS_P2;Temp;Humidity;BMP_temperature;BMP_pressure;BME280_temperature;BME280_humidity;BME280_pressure;Samples;Min_cycle;Max_cycle;Signal;HPM_P1;HPM_P2
2022/03/09 00:00:44;;;;;;;;;60.50;45.25;;;;;10.66;41.00;101150.09;5055837;28;45530;-79
2022/03/09 00:03:09;;;;;;;;;62.25;47.75;;;;;10.61;40.95;101147.75;5056787;28;45515;-80
2022/03/09 00:05:35;;;;;;;;;60.00;47.00;;;;;10.63;40.99;101145.91;5056043;28;45776;-80
2022/03/09 00:08:00;;;;;;;;;58.50;47.50;;;;;10.62;41.21;101151.22;5056445;28;46153;-78
2022/03/09 00:13:47;;;;;;;;;64.25;50.25;;;;;10.62;41.18;101151.22;5056235;28;45821;-78
2022/03/09 00:16:13;;;;;;;;;65.25;49.75;;;;;10.60;41.18;101155.69;5055920;28;46399;-78
2022/03/09 00:18:38;;;;;;;;;62.50;49.25;;;;;10.59;41.52;101143.53;5056005;28;46330;-77
2022/03/09 00:21:04;;;;;;;;;66.75;44.00;;;;;10.57;41.41;101145.44;5055700;28;46109;-77
2022/03/09 00:23:29;;;;;;;;;65.00;48.25;;;;;10.58;41.39;101155.78;5056302;28;45593;-79
2022/03/09 00:29:17;;;;;;;;;69.75;51.00;;;;;10.54;41.56;101154.31;5055614;28;46070;-77
2022/03/09 00:31:42;;;;;;;;;65.25;49.00;;;;;10.53;41.42;101165.72;5055439;28;45637;-76
2022/03/09 00:34:08;;;;;;;;;64.75;46.25;;;;;10.55;41.39;101166.47;5054963;28;45465;-77
2022/03/09 00:36:33;;;;;;;;;56.50;42.25;;;;;10.52;41.31;101166.69;5055312;28;45559;-75
2022/03/09 00:38:58;;;;;;;;;59.25;46.50;;;;;10.51;41.59;101168.44;5055669;28;45655;-77
2022/03/09 00:41:24;;;;;;;;;66.75;48.75;;;;;10.53;41.31;101163.09;5055410;28;45632;-79
2022/03/09 00:43:49;;;;;;;;;58.25;45.50;;;;;10.52;41.35;101164.91;5033964;28;45999;-80
2022/03/09 00:46:15;;;;;;;;;64.50;48.25;;;;;10.48;41.38;101159.91;5035161;28;46535;-78
2022/03/09 00:48:40;;;;;;;;;60.00;46.50;;;;;10.48;41.36;101166.00;5035670;28;46233;-78
2022/03/09 00:51:06;;;;;;;;;61.00;48.75;;;;;10.51;41.58;101167.59;5035396;28;45499;-75
2022/03/09 00:53:32;;;;;;;;;59.75;43.75;;;;;10.52;41.56;101167.53;5035651;28;45794;-78
2022/03/09 00:59:19;;;;;;;;;61.25;45.25;;;;;10.38;41.50;101158.81;5035200;28;45803;-77
2022/03/09 01:01:44;;;;;;;;;55.25;43.25;;;;;10.51;41.44;101183.31;5035322;28;45747;-78
2022/03/09 01:04:09;;;;;;;;;51.00;41.75;;;;;10.51;41.49;101183.31;5035358;28;45658;-78
2022/03/09 01:06:35;;;;;;;;;58.00;43.00;;;;;10.53;41.49;101186.66;5034607;28;47330;-78
2022/03/09 01:09:01;;;;;;;;;55.50;43.25;;;;;10.51;41.67;101185.94;5034891;28;45568;-76
2022/03/09 01:14:48;;;;;;;;;51.75;40.25;;;;;10.50;41.92;101185.09;5035057;28;45444;-79
2022/03/09 01:17:13;;;;;;;;;54.00;43.00;;;;;10.46;41.92;101181.00;5034822;28;45591;-77
2022/03/09 01:19:39;;;;;;;;;57.00;43.50;;;;;10.48;42.14;101192.19;5035114;28;46297;-79
2022/03/09 01:22:04;;;;;;;;;51.25;41.50;;;;;10.45;42.31;101184.53;5035100;28;45705;-80
2022/03/09 01:24:30;;;;;;;;;51.25;40.75;;;;;10.44;42.34;101185.47;5033586;28;45776;-77
2022/03/09 01:26:55;;;;;;;;;55.25;43.75;;;;;10.44;42.42;101182.00;5034320;28;46494;-79
2022/03/09 01:29:20;;;;;;;;;48.75;40.00;;;;;10.44;42.49;101195.94;5034376;28;46137;-76
2022/03/09 01:31:46;;;;;;;;;45.00;39.00;;;;;10.42;42.52;101187.34;5035029;28;45492;-78
2022/03/09 01:34:11;;;;;;;;;44.00;38.50;;;;;10.43;43.20;101186.41;5033415;28;45982;-78
2022/03/09 01:36:37;;;;;;;;;43.50;39.00;;;;;10.43;42.92;101189.03;5034269;28;45635;-78
2022/03/09 01:39:03;;;;;;;;;44.25;37.00;;;;;10.42;43.11;101181.25;5034679;28;45674;-78
2022/03/09 01:44:50;;;;;;;;;54.50;37.25;;;;;10.43;43.56;101189.03;5051393;28;45680;-80
2022/03/09 01:47:15;;;;;;;;;41.50;32.00;;;;;10.43;43.93;101183.78;5054393;28;46741;-78
2022/03/09 01:49:41;;;;;;;;;41.00;37.00;;;;;10.45;43.54;101183.69;5054483;28;46346;-77
2022/03/09 01:52:07;;;;;;;;;52.00;39.00;;;;;10.45;43.64;101178.47;5054615;28;45673;-76
2022/03/09 01:54:36;;;;;;;;;42.00;36.50;;;;;10.45;43.96;101174.06;5054396;28;45835;-78
2022/03/09 01:57:02;;;;;;;;;44.25;37.00;;;;;10.48;44.40;101184.34;5052889;28;45594;-77
2022/03/09 01:59:28;;;;;;;;;41.75;33.75;;;;;10.48;44.48;101184.34;5054524;28;46530;-78
2022/03/09 02:01:53;;;;;;;;;37.50;33.50;;;;;10.46;44.54;101170.50;5054328;28;45563;-79
2022/03/09 02:04:19;;;;;;;;;42.00;35.75;;;;;10.48;44.47;101171.25;5054713;28;45467;-78
2022/03/09 02:06:45;;;;;;;;;41.75;36.00;;;;;10.48;44.74;101176.47;5035764;28;47392;-77
2022/03/09 02:15:16;;;;;;;;;39.25;32.00;;;;;10.49;45.60;101167.69;5054122;28;45607;-78
2022/03/09 02:17:42;;;;;;;;;33.25;30.00;;;;;10.49;45.53;101172.94;5054126;28;45464;-79
2022/03/09 02:20:08;;;;;;;;;28.25;24.00;;;;;10.51;45.73;101165.84;5053907;28;46159;-77
2022/03/09 02:22:34;;;;;;;;;28.75;24.00;;;;;10.51;46.87;101165.84;5053840;28;46035;-78
2022/03/09 02:25:01;;;;;;;;;21.50;18.25;;;;;10.52;46.97;101172.75;5053928;28;45686;-74
2022/03/09 02:27:27;;;;;;;;;26.75;22.25;;;;;10.52;47.36;101169.28;5053896;28;45626;-76
2022/03/09 02:29:53;;;;;;;;;31.75;25.25;;;;;10.51;47.77;101173.69;5054043;28;45614;-77
2022/03/09 02:32:20;;;;;;;;;28.00;23.00;;;;;10.50;48.51;101169.38;5035695;28;45697;-77
2022/03/09 02:34:45;;;;;;;;;27.25;23.75;;;;;10.50;48.65;101176.41;5054279;28;45669;-77
2022/03/09 02:37:11;;;;;;;;;21.25;19.25;;;;;10.53;49.24;101176.19;5053531;28;46429;-78
2022/03/09 02:39:37;;;;;;;;;19.50;18.00;;;;;10.51;49.07;101178.09;5053608;28;46306;-76
2022/03/09 02:45:24;;;;;;;;;18.25;16.50;;;;;10.49;49.63;101170.31;5052091;28;45698;-77
2022/03/09 02:47:51;;;;;;;;;19.00;16.25;;;;;10.50;50.23;101173.78;5053719;28;45690;-78
2022/03/09 02:50:16;;;;;;;;;17.75;14.25;;;;;10.51;50.28;101167.59;5035258;28;48365;-77
2022/03/09 02:52:42;;;;;;;;;18.75;17.75;;;;;10.51;50.83;101170.22;5053830;28;45534;-77
2022/03/09 02:55:09;;;;;;;;;23.50;17.25;;;;;10.48;51.17;101165.16;5053622;28;45761;-77
2022/03/09 02:57:35;;;;;;;;;17.25;16.00;;;;;10.46;52.06;101165.28;5052833;28;47017;-77
2022/03/09 03:00:00;;;;;;;;;18.50;18.00;;;;;10.47;51.87;101174.78;5053732;28;45572;-77
2022/03/09 03:02:25;;;;;;;;;21.00;17.75;;;;;10.44;52.55;101177.63;5053535;28;45558;-78
2022/03/09 03:04:51;;;;;;;;;22.00;16.75;;;;;10.45;52.30;101179.31;5053632;28;45604;-78
2022/03/09 03:07:16;;;;;;;;;18.00;17.75;;;;;10.43;52.32;101183.78;5053388;28;45600;-77
2022/03/09 03:09:42;;;;;;;;;17.00;16.00;;;;;10.44;52.89;101195.09;5052049;28;45945;-78
2022/03/09 03:15:29;;;;;;;;;13.50;13.00;;;;;10.39;53.16;101187.53;5053449;28;45449;-77
2022/03/09 03:17:54;;;;;;;;;22.25;17.00;;;;;10.39;53.54;101187.53;5053232;28;45883;-78
2022/03/09 03:20:19;;;;;;;;;19.00;17.00;;;;;10.37;53.30;101185.94;5053318;28;45506;-78
2022/03/09 03:22:45;;;;;;;;;18.25;16.00;;;;;10.36;53.10;101184.28;5053049;28;45725;-77
2022/03/09 03:25:10;;;;;;;;;14.25;13.00;;;;;10.40;53.44;101196.22;5053373;28;45476;-76
2022/03/09 03:30:58;;;;;;;;;18.25;17.25;;;;;10.40;54.61;101186.59;5052995;28;45723;-79
2022/03/09 03:33:24;;;;;;;;;16.25;13.50;;;;;10.38;54.04;101175.38;5053232;28;45533;-77
2022/03/09 03:35:50;;;;;;;;;17.00;15.50;;;;;10.38;54.26;101170.13;5053411;28;45832;-79
2022/03/09 03:38:16;;;;;;;;;17.25;13.75;;;;;10.39;54.67;101177.06;5052764;28;45883;-78
2022/03/09 03:40:42;;;;;;;;;21.00;18.25;;;;;10.38;54.93;101179.75;5052766;28;46367;-78
2022/03/09 03:43:07;;;;;;;;;21.50;19.50;;;;;10.30;54.58;101171.53;5034745;28;45717;-76
2022/03/09 03:45:33;;;;;;;;;17.75;17.00;;;;;10.33;54.25;101172.19;5052829;28;45567;-78
2022/03/09 03:47:58;;;;;;;;;17.50;16.25;;;;;10.36;54.43;101179.88;5052606;28;45675;-79
2022/03/09 03:50:24;;;;;;;;;18.75;16.00;;;;;10.37;54.97;101180.69;5053007;28;45591;-78
2022/03/09 03:52:50;;;;;;;;;19.25;18.25;;;;;10.34;54.49;101173.03;5053168;28;45698;-78
2022/03/09 03:55:15;;;;;;;;;20.75;18.50;;;;;10.36;54.39;101173.78;5053156;28;45722;-78
2022/03/09 04:01:02;;;;;;;;;19.00;18.00;;;;;10.36;54.56;101173.78;5052653;28;46199;-78
2022/03/09 04:03:28;;;;;;;;;14.25;13.00;;;;;10.36;54.53;101179.88;5051896;28;45847;-77
2022/03/09 04:05:53;;;;;;;;;21.75;18.50;;;;;10.36;54.71;101187.72;5034255;28;45922;-77
2022/03/09 04:08:18;;;;;;;;;18.00;16.75;;;;;10.37;54.52;101193.78;5053290;28;45574;-78
2022/03/09 04:10:44;;;;;;;;;23.25;17.50;;;;;10.37;54.66;101193.78;5056228;28;45680;-78
2022/03/09 04:13:09;;;;;;;;;22.50;18.00;;;;;10.36;54.70;101186.88;5056164;28;45629;-78
2022/03/09 04:15:35;;;;;;;;;21.50;16.75;;;;;10.37;54.86;101185.94;5055827;28;45936;-77
2022/03/09 04:18:00;;;;;;;;;18.75;17.00;;;;;10.38;54.85;101187.63;5055661;28;47262;-76
2022/03/09 04:20:26;;;;;;;;;23.00;19.25;;;;;10.37;54.90;101184.16;5056040;28;45711;-78
2022/03/09 04:22:51;;;;;;;;;22.75;18.50;;;;;10.38;54.91;101190.25;5056246;28;45575;-79
2022/03/09 04:25:17;;;;;;;;;23.00;21.50;;;;;10.35;54.82;101179.97;5056092;28;45750;-76
2022/03/09 04:31:03;;;;;;;;;28.50;26.00;;;;;10.34;54.73;101189.59;5055950;28;45742;-77
2022/03/09 04:33:28;;;;;;;;;28.25;27.25;;;;;10.33;54.77;101187.06;5055818;28;45567;-80
2022/03/09 04:35:54;;;;;;;;;32.75;28.00;;;;;10.30;54.79;101185.47;5055914;28;45595;-78
2022/03/09 04:38:19;;;;;;;;;35.75;27.75;;;;;10.28;54.63;101194.34;5054185;28;48285;-77
2022/03/09 04:40:45;;;;;;;;;34.25;28.75;;;;;10.28;54.73;101191.72;5055636;28;45850;-78
2022/03/09 04:46:32;;;;;;;;;31.75;30.00;;;;;10.23;54.58;101186.78;5053732;28;45718;-79
2022/03/09 04:48:57;;;;;;;;;37.00;30.75;;;;;10.22;54.77;101192.09;5055630;28;45629;-75
2022/03/09 04:51:23;;;;;;;;;33.50;32.00;;;;;10.21;54.88;101195.66;5055637;28;45693;-77
2022/03/09 04:53:48;;;;;;;;;37.75;33.00;;;;;10.18;54.81;101196.69;5054345;28;45774;-78
2022/03/09 04:56:15;;;;;;;;;44.25;36.75;;;;;10.18;54.65;101195.84;5055798;28;45574;-77
2022/03/09 04:58:40;;;;;;;;;45.75;35.50;;;;;10.13;54.67;101195.25;5055456;28;46343;-76
2022/03/09 05:01:05;;;;;;;;;42.50;35.25;;;;;10.11;54.73;101201.41;5055764;28;45629;-77
2022/03/09 05:03:33;;;;;;;;;48.00;40.50;;;;;10.07;54.42;101202.53;5055648;28;45681;-76
2022/03/09 05:05:58;;;;;;;;;47.50;41.00;;;;;10.04;54.25;101210.56;5055578;28;45471;-78
2022/03/09 05:08:23;;;;;;;;;51.25;40.75;;;;;9.97;54.13;101201.41;5055092;28;45735;-78
2022/03/09 05:10:49;;;;;;;;;59.00;46.75;;;;;9.98;54.00;101213.56;5055300;28;45543;-79
2022/03/09 05:16:36;;;;;;;;;60.25;46.50;;;;;9.81;53.53;101213.69;5055192;28;45607;-76
2022/03/09 05:19:02;;;;;;;;;54.50;44.75;;;;;9.77;53.66;101214.78;5055003;28;46466;-78
2022/03/09 05:21:27;;;;;;;;;61.25;47.50;;;;;9.73;53.38;101223.75;5053505;28;47256;-78
2022/03/09 05:23:52;;;;;;;;;62.00;47.50;;;;;9.67;53.42;101219.72;5055394;28;45441;-79
2022/03/09 05:26:18;;;;;;;;;49.75;44.50;;;;;9.65;53.17;101226.81;5055328;28;45741;-79
2022/03/09 05:32:05;;;;;;;;;60.25;47.00;;;;;9.53;53.32;101232.75;5054884;28;45629;-78
2022/03/09 05:34:31;;;;;;;;;60.50;44.25;;;;;9.48;53.19;101228.72;5054866;28;45535;-78
2022/03/09 05:36:56;;;;;;;;;51.50;42.75;;;;;9.41;53.19;101243.91;5054862;28;45684;-78
2022/03/09 05:39:22;;;;;;;;;58.75;46.00;;;;;9.33;53.08;101240.03;5055045;28;45791;-78
2022/03/09 05:41:47;;;;;;;;;57.50;46.25;;;;;9.32;53.25;101244.41;5055381;28;46267;-77
2022/03/09 05:44:14;;;;;;;;;62.50;45.25;;;;;9.29;53.19;101252.41;5055327;28;45608;-77
2022/03/09 05:46:39;;;;;;;;;57.25;45.50;;;;;9.23;53.06;101248.38;5054774;28;45507;-79
2022/03/09 05:49:05;;;;;;;;;53.25;41.50;;;;;9.20;53.09;101260.78;5054867;28;45635;-78
2022/03/09 05:51:31;;;;;;;;;54.50;43.00;;;;;9.19;53.41;101265.16;5054360;28;46291;-78
2022/03/09 05:53:57;;;;;;;;;56.75;44.25;;;;;9.13;53.51;101267.25;5036109;28;45650;-77
2022/03/09 05:56:23;;;;;;;;;54.75;44.75;;;;;9.11;53.27;101269.13;5052844;28;45621;-78
2022/03/09 06:02:10;;;;;;;;;52.00;41.75;;;;;9.00;53.45;101261.88;5054551;28;46169;-78
2022/03/09 06:04:35;;;;;;;;;58.00;44.25;;;;;9.03;53.51;101271.28;5053501;28;45522;-79
2022/03/09 06:07:02;;;;;;;;;50.25;42.75;;;;;8.99;53.65;101261.94;5054847;28;45671;-76
2022/03/09 06:09:28;;;;;;;;;54.25;43.50;;;;;8.92;53.64;101268.41;5054614;28;45649;-78
2022/03/09 06:11:53;;;;;;;;;57.25;44.75;;;;;8.94;53.71;101271.81;5054417;28;45839;-78
2022/03/09 06:17:48;;;;;;;;;60.00;42.00;;;;;8.87;54.08;101278.28;5054383;28;45517;-79
2022/03/09 06:20:18;;;;;;;;;49.25;41.75;;;;;8.83;53.87;101275.84;5054064;28;46931;-77
2022/03/09 06:22:44;;;;;;;;;60.25;43.50;;;;;8.81;53.88;101279.44;5054382;28;46218;-78
2022/03/09 06:25:09;;;;;;;;;48.50;41.75;;;;;8.75;53.98;101272.75;5054055;28;45584;-76
2022/03/09 06:27:50;;;;;;;;;49.75;40.50;;;;;8.76;54.00;101278.84;5036032;28;45543;-78
2022/03/09 06:30:16;;;;;;;;;40.75;37.50;;;;;8.74;54.16;101283.31;5053799;28;46900;-78
2022/03/09 06:32:43;;;;;;;;;46.50;39.25;;;;;8.72;54.17;101286.00;5053134;28;46162;-76
2022/03/09 06:35:09;;;;;;;;;44.00;39.00;;;;;8.71;54.13;101288.69;5053450;28;45907;-74
2022/03/09 06:37:35;;;;;;;;;52.75;41.25;;;;;8.73;54.31;101292.06;5054378;28;45771;-77
2022/03/09 06:40:02;;;;;;;;;54.00;41.25;;;;;8.74;54.50;101297.22;5053880;28;46616;-77
2022/03/09 06:42:30;;;;;;;;;54.75;41.25;;;;;8.72;54.69;101290.38;5054396;28;46151;-75
2022/03/09 06:44:56;;;;;;;;;48.25;41.00;;;;;8.69;54.79;101293.16;5053427;28;45601;-73
2022/03/09 06:47:28;;;;;;;;;47.25;40.75;;;;;8.71;54.63;101299.13;5052926;28;45749;-77
2022/03/09 06:49:54;;;;;;;;;54.50;42.25;;;;;8.63;54.47;101298.72;5053959;28;45581;-75
2022/03/09 06:52:20;;;;;;;;;47.25;39.75;;;;;8.64;54.57;101296.00;5053916;28;46242;-76
2022/03/09 06:54:45;;;;;;;;;58.75;44.00;;;;;8.61;54.68;101287.47;5053745;28;45576;-78
2022/03/09 06:57:14;;;;;;;;;55.25;43.00;;;;;8.68;54.77;101294.94;5053997;28;45503;-74
2022/03/09 07:03:05;;;;;;;;;53.25;42.00;;;;;8.66;54.68;101302.00;5053711;28;46241;-78
2022/03/09 07:05:31;;;;;;;;;48.50;38.50;;;;;8.63;54.73;101296.94;5052005;28;45609;-78
2022/03/09 07:07:58;;;;;;;;;48.25;41.50;;;;;8.68;55.05;101308.00;5053730;28;45803;-76
2022/03/09 07:10:23;;;;;;;;;59.75;44.75;;;;;8.69;55.29;101306.22;5053447;28;47015;-77
2022/03/09 07:12:49;;;;;;;;;54.75;41.00;;;;;8.63;55.11;101302.16;5053561;28;45535;-74
2022/03/09 07:15:15;;;;;;;;;60.00;45.00;;;;;8.72;55.02;101311.28;5053393;28;45644;-76
2022/03/09 07:17:41;;;;;;;;;56.00;42.25;;;;;8.78;55.32;101327.47;5053617;28;45603;-74
2022/03/09 07:20:07;;;;;;;;;55.00;45.50;;;;;8.75;55.09;101319.78;5053284;28;46612;-78
2022/03/09 07:22:33;;;;;;;;;55.50;41.25;;;;;8.74;55.08;101323.34;5053788;28;45598;-76
2022/03/09 07:24:58;;;;;;;;;41.50;38.00;;;;;8.83;55.20;101333.31;5053413;28;45563;-78
2022/03/09 07:27:24;;;;;;;;;48.50;43.25;;;;;8.87;55.14;101340.97;5053791;28;45574;-75
2022/03/09 07:33:10;;;;;;;;;55.75;40.75;;;;;8.97;55.44;101350.03;5053152;28;46150;-73
2022/03/09 07:35:36;;;;;;;;;43.50;38.75;;;;;9.00;55.24;101353.34;5053056;28;45526;-75
2022/03/09 07:38:01;;;;;;;;;53.00;40.25;;;;;9.03;55.24;101349.69;5052801;28;45749;-78
2022/03/09 07:40:27;;;;;;;;;41.00;38.00;;;;;9.03;55.42;101339.25;5053099;28;45935;-77
2022/03/09 07:42:52;;;;;;;;;45.75;40.75;;;;;9.05;55.41;101346.09;5053089;28;46156;-76
2022/03/09 07:45:17;;;;;;;;;45.75;41.25;;;;;9.08;55.92;101345.91;5056105;28;45594;-77
2022/03/09 07:47:43;;;;;;;;;63.00;49.75;;;;;9.11;55.74;101344.94;5056840;28;45506;-79
2022/03/09 07:50:09;;;;;;;;;50.75;42.00;;;;;9.14;55.84;101344.75;5056608;28;45565;-75
2022/03/09 07:52:35;;;;;;;;;47.00;42.00;;;;;9.20;55.83;101352.28;5056613;28;46047;-77
2022/03/09 07:55:00;;;;;;;;;52.25;41.00;;;;;9.21;55.70;101339.13;5055033;28;45578;-77
2022/03/09 07:57:26;;;;;;;;;45.50;39.25;;;;;9.25;56.01;101361.56;5056860;28;45762;-80
2022/03/09 08:03:13;;;;;;;;;41.50;36.25;;;;;9.33;56.31;101358.53;5056256;28;45768;-78
2022/03/09 08:05:38;;;;;;;;;45.50;37.75;;;;;9.38;56.20;101366.13;5055922;28;45768;-78
2022/03/09 08:08:04;;;;;;;;;41.75;36.75;;;;;9.42;56.22;101372.88;5056184;28;45566;-79
2022/03/09 08:10:30;;;;;;;;;44.25;37.50;;;;;9.40;56.13;101366.88;5056189;28;45896;-75
2022/03/09 08:12:55;;;;;;;;;44.50;37.75;;;;;9.50;56.04;101373.31;5054757;28;48519;-76
2022/03/09 08:18:43;;;;;;;;;39.75;37.75;;;;;9.59;56.46;101371.03;5055923;28;45556;-79
2022/03/09 08:21:08;;;;;;;;;46.25;37.00;;;;;9.63;56.31;101366.47;5055621;28;45717;-78
2022/03/09 08:23:33;;;;;;;;;39.00;37.50;;;;;9.66;56.35;101364.53;5055988;28;46360;-79
2022/03/09 08:25:59;;;;;;;;;35.25;33.50;;;;;9.72;56.47;101365.16;5055855;28;45606;-79
2022/03/09 08:28:24;;;;;;;;;40.25;37.50;;;;;9.78;56.47;101376.09;5054652;28;45866;-79
2022/03/09 08:30:50;;;;;;;;;42.75;38.50;;;;;9.74;56.27;101356.25;5055857;28;46409;-79
2022/03/09 08:33:15;;;;;;;;;45.75;35.50;;;;;9.82;56.87;101372.41;5055691;28;46488;-78
2022/03/09 08:35:44;;;;;;;;;43.25;39.00;;;;;9.82;56.66;101364.56;5054946;28;45724;-80
2022/03/09 08:38:09;;;;;;;;;38.75;32.75;;;;;9.91;56.64;101371.88;5056116;28;45808;-79
2022/03/09 08:40:35;;;;;;;;;46.75;37.00;;;;;9.96;56.46;101382.09;5055431;28;45690;-78
2022/03/09 08:43:00;;;;;;;;;39.75;33.50;;;;;10.00;56.80;101373.97;5055591;28;46586;-78
2022/03/09 08:49:14;;;;;;;;;40.25;29.25;;;;;10.10;56.67;101385.59;5054653;28;45855;-79
2022/03/09 08:51:39;;;;;;;;;37.50;34.50;;;;;10.17;57.52;101380.06;5055500;28;45711;-80
2022/03/09 08:54:05;;;;;;;;;37.25;32.00;;;;;10.18;57.70;101374.75;5053313;28;46720;-80
2022/03/09 08:56:30;;;;;;;;;42.75;37.00;;;;;10.24;57.24;101386.63;5055001;28;45550;-81
2022/03/09 08:58:56;;;;;;;;;37.75;35.50;;;;;10.18;57.05;101360.81;5055533;28;45594;-79
2022/03/09 09:01:22;;;;;;;;;40.75;32.50;;;;;10.34;57.13;101379.94;5055501;28;45619;-80
2022/03/09 09:03:48;;;;;;;;;37.25;33.00;;;;;10.38;57.32;101373.59;5054326;28;45984;-81
2022/03/09 09:06:14;;;;;;;;;37.75;34.50;;;;;10.34;57.57;101359.00;5055272;28;45514;-80
2022/03/09 09:08:40;;;;;;;;;36.50;31.50;;;;;10.47;57.96;101373.88;5055562;28;45716;-81
2022/03/09 09:11:05;;;;;;;;;36.50;31.25;;;;;10.49;57.85;101373.81;5036909;28;48369;-80
2022/03/09 09:13:31;;;;;;;;;30.50;28.50;;;;;10.49;58.54;101373.81;5055363;28;46361;-81
2022/03/09 09:19:18;;;;;;;;;28.00;24.25;;;;;10.56;59.13;101372.53;5054787;28;45599;-81
2022/03/09 09:21:44;;;;;;;;;33.75;28.25;;;;;10.63;59.04;101384.34;5054814;28;46912;-82
2022/03/09 09:24:10;;;;;;;;;27.50;24.25;;;;;10.66;59.58;101370.19;5054891;28;46152;-81
2022/03/09 09:26:35;;;;;;;;;31.00;25.75;;;;;10.62;59.77;101361.69;5054428;28;45673;-80
2022/03/09 09:29:01;;;;;;;;;26.25;23.00;;;;;10.67;59.71;101358.78;5055226;28;45496;-81
2022/03/09 09:31:27;;;;;;;;;23.00;17.50;;;;;10.69;60.73;101360.38;5055555;28;45476;-83
2022/03/09 09:33:52;;;;;;;;;25.25;22.00;;;;;10.78;61.01;101364.25;5054987;28;45967;-80
2022/03/09 09:36:17;;;;;;;;;21.25;18.75;;;;;10.74;60.23;101365.38;5054829;28;45680;-80
2022/03/09 09:38:43;;;;;;;;;19.25;17.00;;;;;10.81;60.36;101369.28;5054293;28;45592;-80
2022/03/09 09:41:13;;;;;;;;;21.75;18.50;;;;;10.82;60.37;101355.25;5036511;28;47356;-81
2022/03/09 09:43:40;;;;;;;;;23.50;17.00;;;;;10.85;59.81;101348.03;5052971;28;47270;-80
2022/03/09 09:49:29;;;;;;;;;22.25;18.50;;;;;11.07;59.81;101350.19;5053811;28;45622;-81
2022/03/09 09:51:54;;;;;;;;;17.75;15.00;;;;;11.07;59.97;101342.31;5053198;28;46972;-82
2022/03/09 09:54:23;;;;;;;;;18.25;14.00;;;;;11.20;60.15;101351.13;5053210;28;46042;-80
2022/03/09 09:56:49;;;;;;;;;15.25;15.00;;;;;11.22;60.20;101340.56;5054807;28;45817;-81
2022/03/09 09:59:15;;;;;;;;;18.50;16.00;;;;;11.29;59.89;101347.09;5054961;28;45622;-82
2022/03/09 10:01:40;;;;;;;;;21.50;18.50;;;;;11.36;60.24;101348.41;5054718;28;46771;-83
2022/03/09 10:04:08;;;;;;;;;16.75;16.25;;;;;11.40;60.10;101341.16;5054771;28;46145;-82
2022/03/09 10:06:34;;;;;;;;;16.50;14.00;;;;;11.43;60.25;101339.22;5053466;28;45850;-81
2022/03/09 10:09:05;;;;;;;;;19.50;15.25;;;;;11.49;60.14;101344.09;5055120;28;45431;-83
2022/03/09 10:11:47;;;;;;;;;18.50;15.50;;;;;11.51;60.02;101336.94;5053110;28;48465;-82
2022/03/09 10:14:13;;;;;;;;;15.00;13.25;;;;;11.46;60.24;101323.28;5054401;28;46365;-82
2022/03/09 10:17:01;;;;;;;;;17.25;15.25;;;;;11.52;60.36;101332.53;5054381;28;45697;-81
2022/03/09 10:19:37;;;;;;;;;16.50;14.75;;;;;11.61;60.17;101337.19;5043825;28;45787;-82
2022/03/09 10:22:27;;;;;;;;;14.00;13.00;;;;;11.68;60.00;101338.50;5054442;28;45683;-82
2022/03/09 10:24:56;;;;;;;;;15.50;15.00;;;;;11.70;59.86;101329.59;5054099;28;46236;-81
2022/03/09 10:27:49;;;;;;;;;18.00;15.75;;;;;11.76;59.74;101334.50;5053479;28;45650;-80
2022/03/09 10:30:20;;;;;;;;;17.25;14.25;;;;;11.81;59.58;101334.19;5055179;28;45727;-82
2022/03/09 10:32:54;;;;;;;;;13.00;11.25;;;;;11.91;59.47;101335.28;5054151;28;45591;-81
2022/03/09 10:35:41;;;;;;;;;16.00;14.25;;;;;11.96;59.54;101324.47;5054144;28;45641;-80
2022/03/09 10:38:22;;;;;;;;;13.75;10.75;;;;;12.07;59.53;101329.84;5053952;28;45586;-83
2022/03/09 10:40:55;;;;;;;;;15.00;13.25;;;;;12.10;59.31;101324.38;5036116;28;45585;-83
2022/03/09 10:43:31;;;;;;;;;14.50;12.25;;;;;12.14;59.00;101315.38;5053511;28;45694;-82
2022/03/09 10:46:11;;;;;;;;;16.00;11.50;;;;;12.23;59.20;101319.19;5053356;28;46258;-80
2022/03/09 10:48:58;;;;;;;;;12.25;12.00;;;;;12.29;58.98;101324.88;5048533;28;45819;-82
2022/03/09 10:51:33;;;;;;;;;8.50;7.75;;;;;12.34;58.72;101321.94;5033573;28;45537;-82
2022/03/09 10:54:02;;;;;;;;;10.50;9.25;;;;;12.40;58.67;101311.84;5033809;28;45654;-83
2022/03/09 10:56:28;;;;;;;;;10.75;10.00;;;;;12.44;58.43;101308.06;5031684;28;48062;-82
2022/03/09 10:58:53;;;;;;;;;11.00;10.00;;;;;12.55;58.54;101320.47;5033593;28;45783;-81
2022/03/09 11:01:21;;;;;;;;;9.50;8.00;;;;;12.58;57.92;101312.38;5033785;28;45746;-79
2022/03/09 11:03:47;;;;;;;;;8.75;7.75;;;;;12.62;58.18;101327.00;5033686;28;45547;-82
2022/03/09 11:06:14;;;;;;;;;9.00;8.00;;;;;12.72;57.85;101332.47;5033542;28;46295;-80
2022/03/09 11:08:41;;;;;;;;;9.00;8.75;;;;;12.77;57.66;101331.22;5033627;28;45916;-80
2022/03/09 11:11:08;;;;;;;;;9.50;8.50;;;;;12.78;57.61;101330.28;5032197;28;45924;-80
2022/03/09 11:13:38;;;;;;;;;10.50;9.50;;;;;12.88;57.05;101333.09;5034414;28;45537;-84
2022/03/09 11:16:05;;;;;;;;;10.50;10.50;;;;;12.85;56.85;101323.63;5034793;28;46206;-83
2022/03/09 11:18:32;;;;;;;;;7.75;7.00;;;;;12.95;57.26;101332.59;5039641;28;45733;-82
2022/03/09 11:21:00;;;;;;;;;10.75;10.00;;;;;13.01;56.92;101323.41;5037709;28;45878;-83
2022/03/09 11:23:28;;;;;;;;;11.00;9.75;;;;;13.04;56.67;101318.78;5020268;28;47380;-84
2022/03/09 11:26:14;;;;;;;;;10.00;10.00;;;;;13.11;56.73;101323.63;5037340;28;45823;-82
2022/03/09 11:28:45;;;;;;;;;10.25;9.75;;;;;13.13;56.54;101312.06;5037399;28;45569;-82
2022/03/09 11:31:13;;;;;;;;;11.00;11.00;;;;;13.16;56.48;101301.34;5019090;28;45650;-84
2022/03/09 11:33:42;;;;;;;;;8.25;5.25;;;;;13.22;56.13;101300.91;5019279;28;47650;-81
2022/03/09 11:36:29;;;;;;;;;13.00;12.00;;;;;13.31;56.09;101302.88;5038157;28;46072;-82
2022/03/09 11:39:04;;;;;;;;;11.75;11.00;;;;;13.36;56.00;101297.28;5037064;28;45668;-82
2022/03/09 11:41:36;;;;;;;;;14.50;12.75;;;;;13.38;56.02;101301.50;5037128;28;45713;-84
2022/03/09 11:44:19;;;;;;;;;13.75;12.00;;;;;13.45;56.11;101296.59;5036684;28;45607;-81
2022/03/09 11:46:57;;;;;;;;;10.50;10.50;;;;;13.50;55.95;101293.63;5036745;28;45945;-82
2022/03/09 11:49:23;;;;;;;;;13.75;12.00;;;;;13.53;55.74;101288.16;5046463;28;45685;-80
2022/03/09 11:52:11;;;;;;;;;14.50;12.75;;;;;13.58;55.69;101291.31;5038581;28;45927;-80
2022/03/09 11:54:49;;;;;;;;;10.00;9.25;;;;;13.61;55.30;101277.91;5055842;28;46660;-82
2022/03/09 11:57:16;;;;;;;;;12.00;10.50;;;;;13.65;55.57;101287.28;5056524;28;46295;-80
2022/03/09 12:03:07;;;;;;;;;16.00;13.25;;;;;13.72;54.93;101288.50;4994239;28;45772;-82
2022/03/09 12:05:39;;;;;;;;;12.25;11.50;;;;;13.72;54.93;101275.34;4993875;28;46355;-79
2022/03/09 12:08:07;;;;;;;;;13.50;13.50;;;;;13.79;55.38;101280.03;4993895;28;46071;-80
2022/03/09 12:10:54;;;;;;;;;12.00;11.00;;;;;13.84;55.15;101271.81;4993986;28;45580;-81
2022/03/09 12:13:33;;;;;;;;;13.50;12.00;;;;;13.87;55.06;101264.50;4994282;28;45623;-81
2022/03/09 12:19:21;;;;;;;;;12.75;10.75;;;;;13.97;54.76;101266.47;4994360;28;45852;-79
2022/03/09 12:21:47;;;;;;;;;12.50;10.25;;;;;14.05;54.07;101272.84;4993868;28;45759;-77
2022/03/09 12:24:15;;;;;;;;;11.00;11.00;;;;;14.12;54.31;101266.16;4977313;28;45811;-81
2022/03/09 12:26:46;;;;;;;;;12.75;11.25;;;;;14.20;53.78;101255.03;4993448;28;45671;-80
2022/03/09 12:29:33;;;;;;;;;9.50;9.50;;;;;14.27;54.18;101254.44;4993055;28;45580;-79
2022/03/09 12:35:22;;;;;;;;;13.25;12.00;;;;;14.48;53.32;101248.50;4993617;28;45595;-79
2022/03/09 12:37:53;;;;;;;;;15.00;12.50;;;;;14.49;53.59;101235.22;4993644;28;46877;-83
2022/03/09 12:40:19;;;;;;;;;10.75;10.25;;;;;14.54;53.52;101232.22;5044419;28;46949;-83
2022/03/09 12:42:57;;;;;;;;;15.25;11.75;;;;;14.62;53.38;101230.69;5054216;28;45581;-83